Terminal Aerodrome Forecast
Issued by NWS Billings, MT

Home | Current Version | Previous Version | Text Only | Print | Product List | Glossary On
Versions: 1 2 3 4 5 6 7 8 9 10 11 12 13
000
FTUS45 KBYZ 242323
TAFSHR
TAF
KSHR 242323Z 2500/2524 VRB04KT P6SM SKC
     FM250400 VRB04KT P6SM VCTS FEW100CB SCT250
     FM250900 VRB03KT P6SM SCT200
     FM251200 35012KT P6SM SCT200
     FM252100 36010KT P6SM VCTS SCT090CB BKN120=

USA.gov is the U.S. government's official web portal to all federal, state and local government web resources and services.